ブエノスアイレス/エセイサ の空港の天気 - METARとTAF

エセイサ国際空港 ( SAEZ / EZE ) - アルゼンチン ブエノスアイレス州、Ezeiza
飛行場実況気象(Metar)
観測時間10/18 12:00 ART (10/18 15:00 UTC)
風向・風速南南西 6m/s 瞬間風速11m/s
視程10km以上
天気現象
なし
気温21℃
湿度40%
気圧1019hPa
METARSAEZ 181500Z 21012G22KT CAVOK 21/07 Q1019 NOSIG
過去の天気等 Google飛行場航空写真 Wunderground天気予報

過去48時間のMETAR

飛行場予報(TAF)
発表時間: 10/18 08:00 ART (10/18 11:00 UTC)
予報対象時間: 18日9時 ART ~ 19日9時 ART
風向・風速西 5m/s
視程10km以上
なし
18日9時 ART ~ 18日11時 ART に徐々に
風向・風速西南西 8m/s
18日11時 ART ~ 18日16時 ART に一時的に
風向・風速西南西 8m/s 瞬間風速 13m/s
18日17時 ART ~ 18日19時 ART に徐々に
風向・風速南 3m/s
TAF SAEZ 181100Z 1812/1912 26010KT CAVOK TX21/1818Z TN11/1910Z
BECMG 1812/1814 24015KT
TEMPO 1814/1819 24015G25KT
BECMG 1820/1822 18005KT